Time;durP1;ratioP1;P1;durP2;ratioP2;P2;SDS_P1;SDS_P2;PMS_P1;PMS_P2;Temp;Humidity;BMP_temperature;BMP_pressure;BME280_temperature;BME280_humidity;BME280_pressure;Samples;Min_cycle;Max_cycle;Signal;HPM_P1;HPM_P2
2023/05/04 00:02:12;;;;;;;8.45;6.75;;;10.60;94.70;;;;;;5043696;28;20040;-42
2023/05/04 00:04:38;;;;;;;8.20;6.95;;;10.60;94.80;;;;;;5042717;28;20021;-42
2023/05/04 00:07:04;;;;;;;8.90;6.57;;;10.50;95.00;;;;;;5043678;28;20040;-41
2023/05/04 00:09:30;;;;;;;7.28;6.40;;;10.50;95.00;;;;;;5043261;28;20016;-42
2023/05/04 00:11:56;;;;;;;7.18;5.93;;;10.50;95.20;;;;;;5042880;28;20067;-41
2023/05/04 00:14:22;;;;;;;6.47;5.82;;;10.50;95.20;;;;;;5023353;28;20166;-43
2023/05/04 00:16:47;;;;;;;7.72;5.95;;;10.50;95.30;;;;;;5037587;28;20801;-43
2023/05/04 00:19:13;;;;;;;8.63;6.38;;;10.50;95.30;;;;;;5043841;28;20538;-40
2023/05/04 00:21:38;;;;;;;6.07;5.38;;;10.50;95.40;;;;;;5042296;28;20017;-43
2023/05/04 00:24:04;;;;;;;7.35;5.72;;;10.50;95.50;;;;;;5043402;28;20024;-43
2023/05/04 00:26:30;;;;;;;6.80;6.15;;;10.40;95.50;;;;;;5042584;28;20048;-42
2023/05/04 00:28:55;;;;;;;6.72;5.85;;;10.40;95.60;;;;;;5043644;28;20113;-43
2023/05/04 00:31:21;;;;;;;7.40;5.53;;;10.40;95.70;;;;;;5042416;28;20414;-42
2023/05/04 00:33:46;;;;;;;10.52;5.57;;;10.40;95.70;;;;;;5042696;28;20024;-44
2023/05/04 00:36:15;;;;;;;7.15;5.55;;;10.40;95.80;;;;;;5042331;28;20051;-42
2023/05/04 00:38:48;;;;;;;9.65;6.38;;;10.40;96.00;;;;;;5042541;28;20040;-43
2023/05/04 00:41:15;;;;;;;8.77;6.32;;;10.40;96.10;;;;;;5043318;28;20108;-42
2023/05/04 00:43:40;;;;;;;6.88;5.90;;;10.40;96.20;;;;;;5042388;28;20180;-43
2023/05/04 00:46:06;;;;;;;7.88;6.10;;;10.30;96.30;;;;;;5041782;28;20133;-42
2023/05/04 00:48:31;;;;;;;6.18;5.32;;;10.30;96.40;;;;;;5041273;28;20124;-44
2023/05/04 00:50:57;;;;;;;7.32;5.60;;;10.30;96.50;;;;;;5043097;28;20040;-40
2023/05/04 00:53:23;;;;;;;8.27;5.88;;;10.20;96.60;;;;;;5041055;28;20028;-42
2023/05/04 00:55:48;;;;;;;10.05;6.03;;;10.20;96.70;;;;;;5042517;28;20049;-43
2023/05/04 00:58:21;;;;;;;6.28;5.60;;;10.20;96.80;;;;;;5042271;28;20095;-43
2023/05/04 01:00:46;;;;;;;6.75;5.80;;;10.20;96.90;;;;;;5041851;28;20043;-42
2023/05/04 01:03:12;;;;;;;8.88;5.80;;;10.20;96.90;;;;;;5042392;28;20012;-43
2023/05/04 01:05:46;;;;;;;7.75;4.97;;;10.20;97.00;;;;;;5041917;28;20033;-43
2023/05/04 01:08:17;;;;;;;6.97;4.88;;;10.10;97.00;;;;;;5041974;28;20032;-43
2023/05/04 01:11:05;;;;;;;9.50;6.72;;;10.10;97.10;;;;;;5042202;28;20037;-42
2023/05/04 01:13:34;;;;;;;7.63;5.32;;;10.10;97.30;;;;;;5041466;28;20033;-43
2023/05/04 01:16:01;;;;;;;6.53;5.32;;;10.10;97.40;;;;;;5042463;28;20037;-43
2023/05/04 01:18:27;;;;;;;5.75;5.15;;;10.00;97.40;;;;;;5041527;28;20029;-43
2023/05/04 01:20:52;;;;;;;8.27;5.82;;;10.00;97.50;;;;;;5041976;28;20027;-44
2023/05/04 01:23:18;;;;;;;5.72;4.68;;;10.00;97.60;;;;;;5041140;28;20064;-43
2023/05/04 01:25:55;;;;;;;9.00;5.90;;;10.00;97.70;;;;;;5042077;28;20036;-42
2023/05/04 01:28:31;;;;;;;8.45;6.05;;;10.00;97.80;;;;;;5041027;28;20025;-42
2023/05/04 01:30:59;;;;;;;6.15;5.15;;;10.00;97.90;;;;;;5042581;28;20103;-40
2023/05/04 01:33:27;;;;;;;7.10;5.47;;;9.90;97.90;;;;;;5041382;28;20426;-43
2023/05/04 01:35:53;;;;;;;7.68;4.70;;;9.90;97.90;;;;;;5041138;28;20045;-43
2023/05/04 01:38:19;;;;;;;6.70;4.75;;;9.90;98.00;;;;;;5041385;28;20036;-43
2023/05/04 01:40:44;;;;;;;6.78;4.85;;;9.90;98.00;;;;;;5041175;28;20017;-42
2023/05/04 01:43:10;;;;;;;6.68;5.50;;;9.90;98.10;;;;;;5041131;28;20028;-42
2023/05/04 01:45:35;;;;;;;5.65;4.55;;;9.90;98.10;;;;;;5041245;28;20021;-42
2023/05/04 01:48:01;;;;;;;5.63;4.82;;;9.90;98.20;;;;;;5041471;28;20052;-42
2023/05/04 01:50:27;;;;;;;6.43;5.22;;;9.80;98.20;;;;;;5040221;28;20499;-42
2023/05/04 01:52:52;;;;;;;8.07;5.15;;;9.80;98.30;;;;;;5041153;28;20032;-42
2023/05/04 01:55:18;;;;;;;7.53;5.53;;;9.80;98.30;;;;;;5040550;28;20041;-44
2023/05/04 01:57:44;;;;;;;7.35;5.50;;;9.80;98.30;;;;;;5040425;28;20021;-43
2023/05/04 02:00:10;;;;;;;6.82;5.70;;;9.70;98.40;;;;;;5041002;28;20892;-42
2023/05/04 02:02:36;;;;;;;10.90;5.88;;;9.70;98.50;;;;;;5040843;28;20032;-43
2023/05/04 02:05:04;;;;;;;5.65;5.10;;;9.70;98.60;;;;;;5040516;28;20785;-42
2023/05/04 02:07:30;;;;;;;6.78;4.85;;;9.70;98.70;;;;;;5021642;28;20028;-42
2023/05/04 02:09:55;;;;;;;6.28;4.93;;;9.70;98.80;;;;;;5030211;28;20017;-43
2023/05/04 02:12:21;;;;;;;7.93;4.85;;;9.60;98.80;;;;;;5040540;28;20468;-42
2023/05/04 02:14:46;;;;;;;8.38;5.20;;;9.60;98.80;;;;;;5041493;28;20778;-43
2023/05/04 02:17:15;;;;;;;8.88;5.70;;;9.60;99.00;;;;;;5040998;28;20600;-42
2023/05/04 02:19:40;;;;;;;6.70;5.38;;;9.60;99.00;;;;;;5040298;28;20032;-44
2023/05/04 02:22:08;;;;;;;7.57;5.80;;;9.50;99.10;;;;;;5041129;28;20017;-43
2023/05/04 02:24:34;;;;;;;7.40;5.93;;;9.50;99.20;;;;;;5039702;28;20029;-43
2023/05/04 02:27:00;;;;;;;6.18;5.05;;;9.50;99.30;;;;;;5040611;28;20027;-43
2023/05/04 02:29:26;;;;;;;7.47;5.25;;;9.40;99.30;;;;;;5041011;28;20030;-43
2023/05/04 02:31:52;;;;;;;8.98;6.03;;;9.40;99.40;;;;;;5039929;28;20060;-44
2023/05/04 02:34:17;;;;;;;8.35;5.18;;;9.40;99.60;;;;;;5040812;28;20037;-43
2023/05/04 02:36:43;;;;;;;6.18;5.50;;;9.40;99.60;;;;;;5041016;28;20037;-43
2023/05/04 02:39:08;;;;;;;6.90;5.40;;;9.40;99.70;;;;;;5040602;28;20036;-43
2023/05/04 02:41:40;;;;;;;7.70;5.55;;;9.40;99.70;;;;;;5040360;28;20025;-43
2023/05/04 02:44:05;;;;;;;5.50;4.82;;;9.30;99.80;;;;;;5041301;28;20389;-43
2023/05/04 02:46:34;;;;;;;8.65;5.03;;;9.30;99.80;;;;;;5039135;28;20560;-43
2023/05/04 02:48:59;;;;;;;6.82;5.10;;;9.30;99.90;;;;;;5040241;28;20056;-42
2023/05/04 02:51:34;;;;;;;10.43;5.65;;;9.30;99.90;;;;;;5040024;28;20025;-43
2023/05/04 02:54:09;;;;;;;5.28;4.70;;;9.30;99.90;;;;;;5040277;28;20033;-43
2023/05/04 02:56:34;;;;;;;7.22;5.30;;;9.30;99.90;;;;;;5039780;28;20028;-43
2023/05/04 02:59:00;;;;;;;7.65;5.30;;;9.20;99.90;;;;;;5040401;28;20479;-43
2023/05/04 03:01:25;;;;;;;7.38;5.30;;;9.20;99.90;;;;;;5039583;28;20597;-43
2023/05/04 03:03:51;;;;;;;6.68;5.55;;;9.20;99.90;;;;;;5040568;28;20021;-43
2023/05/04 03:06:16;;;;;;;7.82;6.25;;;9.20;99.90;;;;;;5040024;28;20503;-43
2023/05/04 03:08:42;;;;;;;6.10;5.57;;;9.20;99.90;;;;;;5039245;28;20476;-42
2023/05/04 03:11:07;;;;;;;8.90;5.80;;;9.20;99.90;;;;;;5040527;28;20064;-43
2023/05/04 03:13:36;;;;;;;8.30;5.47;;;9.20;99.90;;;;;;5039091;28;20025;-42
2023/05/04 03:16:01;;;;;;;6.38;4.95;;;9.10;99.90;;;;;;5040198;28;20075;-41
2023/05/04 03:18:27;;;;;;;6.43;4.70;;;9.10;99.90;;;;;;5040051;28;20743;-43
2023/05/04 03:20:52;;;;;;;8.65;5.22;;;9.10;99.90;;;;;;5038463;28;20448;-44
2023/05/04 03:23:21;;;;;;;5.63;4.55;;;9.10;99.90;;;;;;5039458;28;20699;-43
2023/05/04 03:25:46;;;;;;;7.70;5.05;;;9.10;99.90;;;;;;5040057;28;20103;-42
2023/05/04 03:28:14;;;;;;;6.10;5.20;;;9.10;99.90;;;;;;5039901;28;20021;-43
2023/05/04 03:30:40;;;;;;;9.88;6.13;;;9.10;99.90;;;;;;5039046;28;20056;-42
2023/05/04 03:33:06;;;;;;;6.97;5.53;;;9.10;99.90;;;;;;5040001;28;20112;-42
2023/05/04 03:35:32;;;;;;;6.88;5.13;;;9.10;99.90;;;;;;5038665;28;20087;-43
2023/05/04 03:37:58;;;;;;;7.05;5.60;;;9.10;99.90;;;;;;5040432;28;20029;-43
2023/05/04 03:40:23;;;;;;;6.78;5.32;;;9.10;99.90;;;;;;5039267;28;20029;-44
2023/05/04 03:42:51;;;;;;;5.85;4.78;;;9.00;99.90;;;;;;5039843;28;20032;-43
2023/05/04 03:45:17;;;;;;;7.40;5.70;;;9.00;99.90;;;;;;5040240;28;20021;-42
2023/05/04 03:47:42;;;;;;;7.28;5.07;;;9.00;99.90;;;;;;5039434;28;20045;-42
2023/05/04 03:50:08;;;;;;;6.35;5.65;;;9.00;99.90;;;;;;5040079;28;20032;-43
2023/05/04 03:52:34;;;;;;;9.15;6.00;;;9.00;99.90;;;;;;5039916;28;20109;-42
2023/05/04 03:55:00;;;;;;;6.35;5.43;;;9.00;99.90;;;;;;5040217;28;20812;-43
2023/05/04 03:57:25;;;;;;;9.88;5.63;;;9.00;99.90;;;;;;5039186;28;20622;-41
2023/05/04 03:59:54;;;;;;;6.82;5.35;;;9.00;99.90;;;;;;5039699;28;20033;-42
2023/05/04 04:02:20;;;;;;;8.27;5.75;;;8.90;99.90;;;;;;5039089;28;20150;-43
2023/05/04 04:04:45;;;;;;;6.57;5.30;;;8.90;99.90;;;;;;5038492;28;20502;-42
2023/05/04 04:07:11;;;;;;;6.22;5.32;;;8.90;99.90;;;;;;5039488;28;20029;-43
2023/05/04 04:09:40;;;;;;;6.38;5.03;;;8.90;99.90;;;;;;5038664;28;20055;-43
2023/05/04 04:12:05;;;;;;;8.15;5.78;;;8.90;99.90;;;;;;5042597;28;20021;-41
2023/05/04 04:14:34;;;;;;;7.55;5.55;;;8.90;99.90;;;;;;5042886;28;20019;-42
2023/05/04 04:17:02;;;;;;;9.57;5.82;;;8.90;99.90;;;;;;5042672;28;20128;-43
2023/05/04 04:19:28;;;;;;;8.43;5.72;;;8.90;99.90;;;;;;5042305;28;20112;-43
2023/05/04 04:21:58;;;;;;;7.28;5.80;;;8.90;99.90;;;;;;5043695;28;20488;-42
2023/05/04 04:24:31;;;;;;;7.88;5.15;;;8.90;99.90;;;;;;5041931;28;20025;-44
2023/05/04 04:26:56;;;;;;;8.90;5.72;;;8.90;99.90;;;;;;5043569;28;20052;-43
2023/05/04 04:29:22;;;;;;;7.82;5.38;;;8.80;99.90;;;;;;5043174;28;20117;-43
2023/05/04 04:31:48;;;;;;;6.50;5.78;;;8.80;99.90;;;;;;5042501;28;20029;-44
2023/05/04 04:34:13;;;;;;;7.82;5.47;;;8.80;99.90;;;;;;5043197;28;20362;-43
2023/05/04 04:36:42;;;;;;;6.18;5.40;;;8.90;99.90;;;;;;5042399;28;20157;-43
2023/05/04 04:39:08;;;;;;;6.30;5.05;;;8.90;99.90;;;;;;5042414;28;20032;-43
2023/05/04 04:41:33;;;;;;;8.63;5.65;;;8.90;99.90;;;;;;5041854;28;20056;-42
2023/05/04 04:43:59;;;;;;;6.55;5.93;;;8.90;99.90;;;;;;5043710;28;20025;-42
2023/05/04 04:46:24;;;;;;;7.93;5.55;;;8.90;99.90;;;;;;5042105;28;20092;-42
2023/05/04 04:48:59;;;;;;;6.22;5.32;;;8.90;99.90;;;;;;5043003;28;20098;-43
2023/05/04 04:51:25;;;;;;;7.35;5.50;;;8.90;99.90;;;;;;5042268;28;20021;-42
2023/05/04 04:53:53;;;;;;;7.78;6.03;;;9.00;99.90;;;;;;5042040;28;20040;-42
2023/05/04 04:56:22;;;;;;;9.20;6.57;;;9.00;99.90;;;;;;5042125;28;20392;-42
2023/05/04 04:58:47;;;;;;;8.50;5.88;;;9.00;99.90;;;;;;5042994;28;20025;-44
2023/05/04 05:01:16;;;;;;;9.10;6.25;;;9.00;99.90;;;;;;5042016;28;20024;-43
2023/05/04 05:03:46;;;;;;;13.27;6.97;;;9.00;99.90;;;;;;5041998;28;20052;-43
2023/05/04 05:06:12;;;;;;;6.88;5.53;;;9.10;99.90;;;;;;5041425;28;20017;-42
2023/05/04 05:08:42;;;;;;;6.57;5.93;;;9.10;99.90;;;;;;5042130;28;20025;-42
2023/05/04 05:11:09;;;;;;;7.03;5.32;;;9.10;99.90;;;;;;5042384;28;20032;-42
2023/05/04 05:13:34;;;;;;;6.97;5.85;;;9.10;99.90;;;;;;5041422;28;20021;-42
2023/05/04 05:16:00;;;;;;;7.45;5.60;;;9.20;99.90;;;;;;5042549;28;20481;-43
2023/05/04 05:18:26;;;;;;;5.82;5.25;;;9.20;99.90;;;;;;5041248;28;20032;-42
2023/05/04 05:20:51;;;;;;;6.80;5.85;;;9.30;99.90;;;;;;5041885;28;20017;-43
2023/05/04 05:23:17;;;;;;;7.25;6.05;;;9.30;99.90;;;;;;5041165;28;20102;-43
2023/05/04 05:25:43;;;;;;;6.82;6.13;;;9.30;99.90;;;;;;5041478;28;20705;-44
2023/05/04 05:28:09;;;;;;;7.72;5.97;;;9.30;99.90;;;;;;5041230;28;20108;-43
2023/05/04 05:30:40;;;;;;;9.13;6.95;;;9.40;99.90;;;;;;5037817;28;20901;-42
2023/05/04 05:33:06;;;;;;;6.05;5.35;;;9.40;99.90;;;;;;5041228;28;20025;-42
2023/05/04 05:35:32;;;;;;;7.45;5.43;;;9.40;99.90;;;;;;5040035;28;20029;-44
2023/05/04 05:37:57;;;;;;;9.30;6.38;;;9.50;99.90;;;;;;5042407;28;20059;-43
2023/05/04 05:40:23;;;;;;;6.25;5.35;;;9.50;99.90;;;;;;5040297;28;20067;-42
2023/05/04 05:42:48;;;;;;;8.43;6.55;;;9.60;99.90;;;;;;5040465;28;20146;-42
2023/05/04 05:45:14;;;;;;;9.95;6.15;;;9.60;99.90;;;;;;5041029;28;20029;-43
2023/05/04 05:47:40;;;;;;;7.82;6.40;;;9.70;99.90;;;;;;5040150;28;20104;-42
2023/05/04 05:50:06;;;;;;;7.03;6.30;;;9.80;99.90;;;;;;5039975;28;20029;-42
2023/05/04 05:52:38;;;;;;;9.13;6.00;;;9.80;99.90;;;;;;5040270;28;20029;-42
2023/05/04 05:55:04;;;;;;;9.15;5.82;;;9.90;99.90;;;;;;5040196;28;20496;-42
2023/05/04 05:57:30;;;;;;;7.22;6.22;;;9.90;99.90;;;;;;5039518;28;20033;-42
2023/05/04 05:59:56;;;;;;;7.85;6.03;;;9.90;99.90;;;;;;5040810;28;20507;-42
2023/05/04 06:02:22;;;;;;;8.20;5.82;;;10.00;99.90;;;;;;5039474;28;20481;-42
2023/05/04 06:04:48;;;;;;;8.98;5.75;;;10.10;99.90;;;;;;5039967;28;20025;-43
2023/05/04 06:07:13;;;;;;;7.30;5.50;;;10.10;99.90;;;;;;5039837;28;20029;-43
2023/05/04 06:09:39;;;;;;;6.63;5.70;;;10.10;99.90;;;;;;5039064;28;20747;-43
2023/05/04 06:12:11;;;;;;;7.18;5.47;;;10.20;99.90;;;;;;5040588;28;20048;-44
2023/05/04 06:14:37;;;;;;;7.43;5.80;;;10.20;99.90;;;;;;5039879;28;20039;-43
2023/05/04 06:17:02;;;;;;;6.72;5.57;;;10.20;99.90;;;;;;5040161;28;20782;-43
2023/05/04 06:19:41;;;;;;;9.65;5.90;;;10.30;99.90;;;;;;5039466;28;20112;-43
2023/05/04 06:22:07;;;;;;;7.90;6.20;;;10.30;99.90;;;;;;5040992;28;20804;-42
2023/05/04 06:24:32;;;;;;;8.93;6.10;;;10.40;99.90;;;;;;5038475;28;20021;-43
2023/05/04 06:27:01;;;;;;;7.30;5.95;;;10.40;99.90;;;;;;5040856;28;20041;-44
2023/05/04 06:29:26;;;;;;;7.53;5.80;;;10.50;99.90;;;;;;5039300;28;20025;-42
2023/05/04 06:31:52;;;;;;;6.40;5.80;;;10.50;99.90;;;;;;5039074;28;20385;-43
2023/05/04 06:34:18;;;;;;;8.30;5.28;;;10.60;99.90;;;;;;5039680;28;20614;-43
2023/05/04 06:36:44;;;;;;;6.65;5.47;;;10.70;99.90;;;;;;5040101;28;20767;-43
2023/05/04 06:39:09;;;;;;;6.95;5.25;;;10.80;99.90;;;;;;5039696;28;20032;-43
2023/05/04 06:41:38;;;;;;;10.88;5.20;;;10.80;99.90;;;;;;5039881;28;20029;-43
2023/05/04 06:44:13;;;;;;;8.35;5.53;;;10.90;99.90;;;;;;5040688;28;20824;-43
2023/05/04 06:46:38;;;;;;;5.50;4.85;;;11.00;99.90;;;;;;5039396;28;20882;-42
2023/05/04 06:49:04;;;;;;;5.70;4.70;;;11.10;99.90;;;;;;5041023;28;20124;-41
2023/05/04 06:51:37;;;;;;;7.13;5.28;;;11.20;99.90;;;;;;5021813;28;20080;-43
2023/05/04 06:54:03;;;;;;;6.95;5.30;;;11.20;99.90;;;;;;5037970;28;20040;-44
2023/05/04 06:56:30;;;;;;;6.68;5.57;;;11.30;99.90;;;;;;5033906;28;20036;-40
2023/05/04 06:58:55;;;;;;;6.82;5.38;;;11.40;99.90;;;;;;5038504;28;20059;-43
2023/05/04 07:01:21;;;;;;;7.32;5.82;;;11.40;99.90;;;;;;5040240;28;20029;-43
2023/05/04 07:03:47;;;;;;;8.55;6.10;;;11.50;99.90;;;;;;5040233;28;20025;-43
2023/05/04 07:06:12;;;;;;;8.23;6.47;;;11.50;99.90;;;;;;5039442;28;20028;-42
2023/05/04 07:08:38;;;;;;;8.25;6.15;;;11.60;99.90;;;;;;5039762;28;20361;-41
2023/05/04 07:11:04;;;;;;;8.13;6.10;;;11.60;99.90;;;;;;5040433;28;20048;-43
2023/05/04 07:13:30;;;;;;;9.13;6.40;;;11.60;99.90;;;;;;5039196;28;20025;-40
2023/05/04 07:15:55;;;;;;;7.65;5.95;;;11.60;99.90;;;;;;5039738;28;20052;-43
2023/05/04 07:18:21;;;;;;;6.55;5.35;;;11.70;99.90;;;;;;5040039;28;20021;-43
2023/05/04 07:20:47;;;;;;;5.75;5.25;;;11.70;99.90;;;;;;5038883;28;20029;-43
2023/05/04 07:23:12;;;;;;;8.32;5.90;;;11.80;99.90;;;;;;5040306;28;20017;-43
2023/05/04 07:25:41;;;;;;;8.55;6.35;;;11.90;99.90;;;;;;5039376;28;20666;-42
2023/05/04 07:28:07;;;;;;;8.35;6.32;;;11.80;99.90;;;;;;5038960;28;20029;-42
2023/05/04 07:30:32;;;;;;;7.25;6.07;;;11.90;99.90;;;;;;5039274;28;20032;-43
2023/05/04 07:32:58;;;;;;;7.15;6.15;;;11.90;99.90;;;;;;5040192;28;20081;-43
2023/05/04 07:35:23;;;;;;;7.90;5.68;;;11.90;99.90;;;;;;5037954;28;20219;-43
2023/05/04 07:37:49;;;;;;;10.00;6.20;;;11.90;99.90;;;;;;5039779;28;20094;-42
2023/05/04 07:40:15;;;;;;;7.97;5.57;;;11.90;99.90;;;;;;5039778;28;20043;-43
2023/05/04 07:42:41;;;;;;;7.88;6.45;;;11.90;99.90;;;;;;5038972;28;20025;-43
2023/05/04 07:45:10;;;;;;;8.48;6.75;;;11.90;99.90;;;;;;5040091;28;20718;-43
2023/05/04 07:47:36;;;;;;;7.63;5.78;;;12.00;99.90;;;;;;5043133;28;20025;-43
2023/05/04 07:50:02;;;;;;;9.02;6.70;;;12.10;99.90;;;;;;5043779;28;20025;-43
2023/05/04 07:52:28;;;;;;;7.10;6.00;;;12.10;99.90;;;;;;5042925;28;20324;-43
2023/05/04 07:54:54;;;;;;;7.03;5.38;;;12.20;99.90;;;;;;5042861;28;20504;-42
2023/05/04 07:57:20;;;;;;;6.63;5.95;;;12.30;99.90;;;;;;5043086;28;20481;-42
2023/05/04 07:59:46;;;;;;;8.43;6.18;;;12.30;99.90;;;;;;5042350;28;20167;-41
2023/05/04 08:02:11;;;;;;;6.05;5.05;;;12.40;99.90;;;;;;5042552;28;20033;-42
2023/05/04 08:04:37;;;;;;;6.35;5.35;;;12.50;99.90;;;;;;5042812;28;20110;-43
2023/05/04 08:07:02;;;;;;;6.75;5.05;;;12.60;99.90;;;;;;5043948;28;20932;-42
2023/05/04 08:09:28;;;;;;;6.35;5.30;;;12.60;99.90;;;;;;5042497;28;20119;-41
2023/05/04 08:11:53;;;;;;;6.68;5.38;;;12.70;99.90;;;;;;5043462;28;20025;-43
2023/05/04 08:14:19;;;;;;;8.95;6.05;;;12.80;99.90;;;;;;5043270;28;20041;-42
2023/05/04 08:16:45;;;;;;;9.70;6.18;;;12.80;99.90;;;;;;5042145;28;20515;-43
2023/05/04 08:19:11;;;;;;;8.45;5.90;;;12.90;99.90;;;;;;5043412;28;20048;-42
2023/05/04 08:21:39;;;;;;;5.70;5.18;;;13.00;99.90;;;;;;5042508;28;20117;-42
2023/05/04 08:24:04;;;;;;;6.57;5.40;;;13.10;99.90;;;;;;5042155;28;20025;-43
2023/05/04 08:26:30;;;;;;;6.97;5.72;;;13.10;99.90;;;;;;5042494;28;20064;-42
2023/05/04 08:29:06;;;;;;;6.70;5.40;;;13.20;99.90;;;;;;5042930;28;20021;-42
2023/05/04 08:31:31;;;;;;;8.98;6.10;;;13.30;99.80;;;;;;5042229;28;20128;-43
2023/05/04 08:34:00;;;;;;;9.00;5.85;;;13.40;99.70;;;;;;5041987;28;20440;-43
2023/05/04 08:36:26;;;;;;;6.70;5.07;;;13.50;99.60;;;;;;5042187;28;20068;-44
2023/05/04 08:38:52;;;;;;;7.03;5.30;;;13.60;99.50;;;;;;5041720;28;20508;-44
2023/05/04 08:41:18;;;;;;;7.75;5.80;;;13.70;99.40;;;;;;5042814;28;20083;-43
2023/05/04 08:43:45;;;;;;;6.13;5.35;;;13.90;99.30;;;;;;5040626;28;20174;-43
2023/05/04 08:46:14;;;;;;;6.70;4.97;;;14.00;99.10;;;;;;5042105;28;20082;-41
2023/05/04 08:48:41;;;;;;;7.00;5.00;;;14.10;99.00;;;;;;5041178;28;20532;-43
2023/05/04 08:51:08;;;;;;;8.75;5.05;;;14.20;98.80;;;;;;5041606;28;20037;-42
2023/05/04 08:53:36;;;;;;;6.95;4.95;;;14.40;98.70;;;;;;5041893;28;20017;-40
2023/05/04 08:56:08;;;;;;;5.32;4.75;;;14.50;98.60;;;;;;5042194;28;20119;-43
2023/05/04 08:58:36;;;;;;;4.90;4.23;;;14.60;98.50;;;;;;5039773;28;20032;-42
2023/05/04 09:01:05;;;;;;;6.65;4.93;;;14.70;98.40;;;;;;5042525;28;20025;-43
2023/05/04 09:03:32;;;;;;;6.78;4.78;;;14.80;98.30;;;;;;5041331;28;20052;-43
2023/05/04 09:05:59;;;;;;;7.80;5.03;;;14.80;98.30;;;;;;5041195;28;20090;-43
2023/05/04 09:08:25;;;;;;;6.18;4.43;;;14.90;98.30;;;;;;5041826;28;20035;-41
2023/05/04 09:10:51;;;;;;;6.53;5.28;;;15.00;98.30;;;;;;5042336;28;20021;-43
2023/05/04 09:13:17;;;;;;;5.43;4.43;;;15.10;98.30;;;;;;5041951;28;20036;-43
2023/05/04 09:15:56;;;;;;;5.55;4.15;;;15.20;98.30;;;;;;5041219;28;20032;-43
2023/05/04 09:18:22;;;;;;;5.85;4.57;;;15.30;98.30;;;;;;5041841;28;20167;-42
2023/05/04 09:20:48;;;;;;;5.57;4.53;;;15.30;98.10;;;;;;5040869;28;20021;-42
2023/05/04 09:23:17;;;;;;;5.72;4.65;;;15.40;98.10;;;;;;5042210;28;20021;-43
2023/05/04 09:25:49;;;;;;;7.85;5.00;;;15.40;98.00;;;;;;5041315;28;20029;-45
2023/05/04 09:28:17;;;;;;;6.75;4.93;;;15.50;98.00;;;;;;5041199;28;20032;-43
2023/05/04 09:30:43;;;;;;;7.25;5.38;;;15.50;97.90;;;;;;5041999;28;20032;-43
2023/05/04 09:33:12;;;;;;;8.30;5.25;;;15.60;97.80;;;;;;5041435;28;20033;-43
2023/05/04 09:35:41;;;;;;;5.18;4.68;;;15.60;97.60;;;;;;5040361;28;20025;-42
2023/05/04 09:38:08;;;;;;;6.97;4.70;;;15.70;97.70;;;;;;5041427;28;20330;-42
2023/05/04 09:40:41;;;;;;;6.50;4.47;;;15.70;97.60;;;;;;5040198;28;20075;-43
2023/05/04 09:43:09;;;;;;;5.60;5.10;;;15.70;97.70;;;;;;5041721;28;20036;-44
2023/05/04 09:45:43;;;;;;;6.78;5.40;;;15.80;97.60;;;;;;5040325;28;20013;-44
2023/05/04 09:48:27;;;;;;;9.13;5.40;;;15.90;97.50;;;;;;5040896;28;20413;-42
2023/05/04 09:51:05;;;;;;;6.93;5.00;;;15.90;97.50;;;;;;5041107;28;20029;-42
2023/05/04 09:53:31;;;;;;;5.53;4.75;;;15.90;97.50;;;;;;5041267;28;20032;-43
2023/05/04 09:56:28;;;;;;;6.10;4.57;;;15.90;97.40;;;;;;5040074;28;20021;-43
2023/05/04 09:58:58;;;;;;;6.20;5.15;;;16.00;97.50;;;;;;5041474;28;20359;-43
2023/05/04 10:01:29;;;;;;;10.68;5.90;;;16.00;97.50;;;;;;5040102;28;20465;-42
2023/05/04 10:03:55;;;;;;;5.43;4.93;;;16.10;97.30;;;;;;5041884;28;20021;-42
2023/05/04 10:06:22;;;;;;;4.70;4.18;;;16.10;97.40;;;;;;5040644;28;20290;-44
2023/05/04 10:08:49;;;;;;;5.53;4.35;;;16.20;97.40;;;;;;5040412;28;20444;-42
2023/05/04 10:11:17;;;;;;;7.57;5.60;;;16.30;97.40;;;;;;5040370;28;20060;-43
2023/05/04 10:13:48;;;;;;;7.60;5.85;;;16.30;97.20;;;;;;5038377;28;20130;-42
2023/05/04 10:16:43;;;;;;;5.93;5.18;;;16.40;97.10;;;;;;5039205;28;20033;-44
2023/05/04 10:19:28;;;;;;;6.20;4.32;;;16.50;97.10;;;;;;5040139;28;20661;-44
2023/05/04 10:22:05;;;;;;;7.47;5.40;;;16.50;97.00;;;;;;5040078;28;20052;-43
2023/05/04 10:24:41;;;;;;;6.95;5.70;;;16.50;96.90;;;;;;5039881;28;20032;-43
2023/05/04 10:27:11;;;;;;;9.60;5.65;;;16.70;96.80;;;;;;5040740;28;20139;-43
2023/05/04 10:29:38;;;;;;;5.80;5.05;;;16.70;96.60;;;;;;5039933;28;20041;-43
2023/05/04 10:32:06;;;;;;;4.75;4.13;;;16.80;96.50;;;;;;5040966;28;20029;-43
2023/05/04 10:34:33;;;;;;;4.30;3.90;;;16.90;96.50;;;;;;5040437;28;20449;-43
2023/05/04 10:37:00;;;;;;;6.65;4.32;;;17.00;96.50;;;;;;5039757;28;20778;-43
2023/05/04 10:39:28;;;;;;;6.78;5.00;;;17.10;96.40;;;;;;5040301;28;20039;-43
2023/05/04 10:42:01;;;;;;;7.47;5.15;;;17.10;96.20;;;;;;5040542;28;20152;-41
2023/05/04 10:44:28;;;;;;;6.30;4.40;;;17.20;96.00;;;;;;5040157;28;20107;-42
2023/05/04 10:47:05;;;;;;;4.45;4.05;;;17.30;95.70;;;;;;5040018;28;20184;-43
2023/05/04 10:49:32;;;;;;;5.25;4.07;;;17.30;95.70;;;;;;5040177;28;20157;-43
2023/05/04 10:52:07;;;;;;;5.00;4.30;;;17.40;95.60;;;;;;5040242;28;20464;-44
2023/05/04 10:54:37;;;;;;;6.28;4.38;;;17.50;95.60;;;;;;5030052;28;20024;-44
2023/05/04 10:57:05;;;;;;;6.25;4.47;;;17.60;95.50;;;;;;5038136;28;20070;-42
2023/05/04 10:59:31;;;;;;;4.57;4.10;;;17.70;95.30;;;;;;5037155;28;20104;-42
2023/05/04 11:01:57;;;;;;;6.55;4.20;;;17.70;95.20;;;;;;5039160;28;20036;-44
2023/05/04 11:04:23;;;;;;;6.00;4.75;;;17.80;95.20;;;;;;5038314;28;20013;-44
2023/05/04 11:06:56;;;;;;;4.88;4.22;;;17.80;94.90;;;;;;5038016;28;20028;-45
2023/05/04 11:09:30;;;;;;;4.43;3.92;;;17.90;94.90;;;;;;5039039;28;20069;-44
2023/05/04 11:11:56;;;;;;;5.32;3.30;;;18.00;95.00;;;;;;5038640;28;20051;-43
2023/05/04 11:14:25;;;;;;;5.00;4.20;;;18.00;94.90;;;;;;5039593;28;20029;-43
2023/05/04 11:16:51;;;;;;;5.13;4.22;;;18.10;95.00;;;;;;5039812;28;20036;-43
2023/05/04 11:19:20;;;;;;;5.80;3.70;;;18.10;94.90;;;;;;5038982;28;20075;-43
2023/05/04 11:21:46;;;;;;;7.00;4.03;;;18.20;94.80;;;;;;5039900;28;20151;-42
2023/05/04 11:24:12;;;;;;;6.45;4.43;;;18.20;94.70;;;;;;5040602;28;20457;-42
2023/05/04 11:26:48;;;;;;;6.10;4.57;;;18.30;94.60;;;;;;5038633;28;20134;-43
2023/05/04 11:29:13;;;;;;;7.88;4.50;;;18.40;94.40;;;;;;5040401;28;20119;-42
2023/05/04 11:31:39;;;;;;;5.68;4.75;;;18.50;94.30;;;;;;5039372;28;20875;-43
2023/05/04 11:34:06;;;;;;;6.30;5.05;;;18.60;94.20;;;;;;5039121;28;20025;-43
2023/05/04 11:36:38;;;;;;;8.07;4.68;;;18.60;93.70;;;;;;5039309;28;20538;-43
2023/05/04 11:39:05;;;;;;;5.72;4.45;;;18.70;93.60;;;;;;5039852;28;20025;-43
2023/05/04 11:41:31;;;;;;;6.15;4.72;;;18.80;93.70;;;;;;5038758;28;20041;-42
2023/05/04 11:43:59;;;;;;;6.88;4.57;;;18.80;93.60;;;;;;5039783;28;20756;-42
2023/05/04 11:46:25;;;;;;;4.80;4.30;;;18.90;93.30;;;;;;5039922;28;20483;-43
2023/05/04 11:48:51;;;;;;;5.18;4.03;;;19.00;93.20;;;;;;5038984;28;20814;-43
2023/05/04 11:51:17;;;;;;;4.63;3.58;;;19.00;93.10;;;;;;5039841;28;20040;-43
2023/05/04 11:53:43;;;;;;;5.10;3.95;;;19.00;93.00;;;;;;5039636;28;20021;-43
2023/05/04 11:56:08;;;;;;;4.60;3.60;;;19.10;93.00;;;;;;5039276;28;20044;-42
2023/05/04 11:58:34;;;;;;;5.38;4.22;;;19.20;93.00;;;;;;5039454;28;20117;-43
2023/05/04 12:01:00;;;;;;;4.97;4.10;;;19.30;92.90;;;;;;5038715;28;20028;-43
2023/05/04 12:03:30;;;;;;;5.82;4.22;;;19.40;92.80;;;;;;5039802;28;20033;-42
2023/05/04 12:05:56;;;;;;;4.80;4.13;;;19.40;92.70;;;;;;5040202;28;20758;-43
2023/05/04 12:08:25;;;;;;;4.20;3.75;;;19.40;92.70;;;;;;5039764;28;20025;-43
2023/05/04 12:11:09;;;;;;;6.72;4.57;;;19.50;92.80;;;;;;5040126;28;20056;-43
2023/05/04 12:13:35;;;;;;;6.35;4.10;;;19.60;92.60;;;;;;5020372;28;20065;-43
2023/05/04 12:16:15;;;;;;;5.28;4.35;;;19.70;92.50;;;;;;5034623;28;20636;-41
2023/05/04 12:18:43;;;;;;;5.07;4.47;;;19.70;92.20;;;;;;5020061;28;20029;-42
2023/05/04 12:21:13;;;;;;;5.53;4.20;;;19.70;92.10;;;;;;5035127;28;20495;-42
2023/05/04 12:23:42;;;;;;;6.18;3.72;;;19.80;92.00;;;;;;5039198;28;20021;-43
2023/05/04 12:26:09;;;;;;;3.95;3.50;;;19.90;91.90;;;;;;5038120;28;20111;-43
2023/05/04 12:28:36;;;;;;;5.78;4.40;;;19.90;91.70;;;;;;5039497;28;20535;-43
2023/05/04 12:31:08;;;;;;;5.65;4.07;;;19.90;91.70;;;;;;5038831;28;20048;-44
2023/05/04 12:33:34;;;;;;;4.65;3.65;;;20.10;91.70;;;;;;5043130;28;20032;-43
2023/05/04 12:36:07;;;;;;;5.63;3.90;;;20.10;91.50;;;;;;5042933;28;20452;-43
2023/05/04 12:38:33;;;;;;;5.13;3.85;;;20.10;91.30;;;;;;5042881;28;20024;-43
2023/05/04 12:41:01;;;;;;;5.85;4.53;;;20.20;91.00;;;;;;5042814;28;20032;-43
2023/05/04 12:43:26;;;;;;;4.72;3.83;;;20.20;90.60;;;;;;5041922;28;20023;-43
2023/05/04 12:45:52;;;;;;;5.20;3.60;;;20.30;90.40;;;;;;5042848;28;20377;-42
2023/05/04 12:48:19;;;;;;;5.18;4.10;;;20.30;90.30;;;;;;5042468;28;20091;-43
2023/05/04 12:50:46;;;;;;;6.65;4.50;;;20.40;90.20;;;;;;5042549;28;20028;-44
2023/05/04 12:53:12;;;;;;;5.40;4.03;;;20.40;90.00;;;;;;5042619;28;20056;-43